メインページ
METAR-TAF:

METAR-TAF

空港 :

ラバト, モロッコ

ラバト=サレ空港

緯度: 34-03N, 経度: 006-46W, 海抜: 84m

現時点の気象観測

当レポートは13分前の09:30(UTC)に作成
の風 7kt、南東から南西の間で変化する
気温 13°C
湿度 67%
気圧 1018 hPa
視程10km以上
高度1600ftの雲はほとんどない

METAR: GMME 250930Z 19007KT 140V230 9999 FEW016 13/07 Q1018 NOSIG

時間: 09:43 (09:43 UTC)

予報

当レポートは4時間43分前の05:00(UTC)に作成
予報は25日の 06時(UTC)から 26日の 12時(UTC)まで有効
南東の風 8kt
視程10km以上
高度1500ftの雲は散在している
高度2000ftの雲は散在している
25日の 12時(UTC)から 25日の 18時(UTC)まで一時的に
北西の風 4kt
視程: 8000m

TAF: GMME 250500Z 2506/2612 14008KT 9999 SCT015 SCT020 TEMPO 2512/2518 32004KT 8000 NSC

4,000以上の空港の気象観測と天気予報(METAR報とTAF報)

利用可能な観測所は地図上に黄色い丸と赤い丸で示す。

丸の上にカーソルを重ねると観測所名を参照できる。

次にクリックすると気象観測と天気予報を参照できる。

マップの切り替え:黒色「×」印の緑ボタンをクリックして拡大、「-」印の緑ボタンをクリックして縮小、緑色の三角印をクリックして隣りの地図に切り替え


METAR-TAF: